Search for airport 
image banner adimage banner adimage banner ad
image banner ad

KSDM - Brown Field Muni

Located in San Diego, United States

ICAO - SDM, IATA -

Data provided by Airmate  

General information

Coordinates: N32°34'20" W116°58'49"
Elevation is 526 feet MSL.
Magnetic variation is 14° East
View others Airports in California

Operational data

Special qualification required
Current time UTC:
Current local time:
Weather
METAR: KSDM 211853Z VRB06KT 10SM CLR 34/13 A3004 RMK AO2 SLP168 T03390128
View NOTAMs / SUP AIP / TFR affecting this airport [VIEW]
Communications frequencies: [VIEW]

Runways:

RWY identifierQFULength (ft)Width (ft)SurfaceLDA (ft)
08R96°318575ASPH
26L276°318575ASPH
08L96°7972150OTHER
26R276°7972150OTHER

Airport contact information

Address: San Diego United States

Other aviation service providers

Flight schools

First Flight Corporation

First Flight Corporation

Attitude Helicopters

Attitude Helicopters
info@helialtitude.com+1(619)661-1605

Satellite view of KSDM